Terminal Aerodrome Forecast
Issued by NWS

Home | Current Version | Previous Version | Graphics & Text | Print | Product List | Glossary On
Versions: 1 2 3 4 5 6 7 8 9 10 11 12 13 14 15 16 17 18 19 20
000
FTUS43 KBIS 211100
TAFMOT
TAF
KMOT 211135Z 2112/2212 36006KT P6SM SKC
      TEMPO 2112/2114 5SM BR SCT010
     FM211700 05009KT P6SM BKN100
      TEMPO 2120/2124 5SM TSRA OVC050CB
     FM220000 33012KT P6SM -TSRA OVC050CB
     FM220300 35010KT P6SM BKN050=

USA.gov is the U.S. government's official web portal to all federal, state and local government web resources and services.